createdAt,value
2018-08-23T00:00:44.772Z,100915.02
2018-08-23T00:02:49.545Z,100907.94
2018-08-23T00:04:54.463Z,100914.25
2018-08-23T00:07:01.268Z,100911.73
2018-08-23T00:09:08.831Z,100906.76
2018-08-23T00:11:13.799Z,100906.27
2018-08-23T00:13:19.312Z,100906.92
2018-08-23T00:15:28.026Z,100903.00
2018-08-23T00:17:37.090Z,100897.54
2018-08-23T00:19:42.013Z,100897.05
2018-08-23T00:21:48.666Z,100893.39
2018-08-23T00:24:14.039Z,100902.47
2018-08-23T00:26:19.166Z,100896.00
2018-08-23T00:28:24.213Z,100893.77
2018-08-23T00:30:30.180Z,100891.72
2018-08-23T00:32:35.205Z,100888.13
2018-08-23T00:34:40.920Z,100886.41
2018-08-23T00:36:45.970Z,100882.39
2018-08-23T00:38:51.017Z,100880.40
2018-08-23T00:40:56.078Z,100877.24
2018-08-23T00:43:05.214Z,100874.88
2018-08-23T00:45:20.039Z,100871.23
2018-08-23T00:47:32.336Z,100867.73
2018-08-23T00:49:38.501Z,100855.86
2018-08-23T00:51:44.626Z,100873.34
2018-08-23T00:53:54.694Z,100873.16
2018-08-23T00:56:30.329Z,100867.43
2018-08-23T00:58:35.500Z,100858.73
2018-08-23T01:00:40.734Z,100863.15
2018-08-23T01:02:48.965Z,100856.99
2018-08-23T01:04:54.079Z,100863.02
2018-08-23T01:06:59.141Z,100854.66
2018-08-23T01:09:05.072Z,100858.03
2018-08-23T01:11:10.644Z,100856.01
2018-08-23T01:13:15.706Z,100855.02
2018-08-23T01:15:21.629Z,100855.54
2018-08-23T01:17:26.509Z,100858.88
2018-08-23T01:19:36.552Z,100855.86
2018-08-23T01:21:49.233Z,100856.01
2018-08-23T01:23:54.354Z,100859.41
2018-08-23T01:25:59.508Z,100859.08
2018-08-23T01:28:04.971Z,100854.27
2018-08-23T01:30:10.054Z,100848.62
2018-08-23T01:32:20.389Z,100849.16
2018-08-23T01:34:25.468Z,100839.67
2018-08-23T01:36:32.751Z,100836.69
2018-08-23T01:38:37.917Z,100842.20
2018-08-23T01:40:45.889Z,100832.23
2018-08-23T01:42:50.792Z,100829.09
2018-08-23T01:44:55.614Z,100827.77
2018-08-23T01:47:02.599Z,100821.62
2018-08-23T01:49:07.934Z,100825.50
2018-08-23T01:51:13.143Z,100826.80
2018-08-23T01:53:20.623Z,100825.45
2018-08-23T01:55:26.235Z,100820.73
2018-08-23T01:57:35.720Z,100821.16
2018-08-23T01:59:40.988Z,100818.92
2018-08-23T02:01:46.112Z,100816.30
2018-08-23T02:03:51.126Z,100819.80
2018-08-23T02:05:58.560Z,100817.75
2018-08-23T02:08:03.777Z,100807.34
2018-08-23T02:10:08.860Z,100809.02
2018-08-23T02:12:14.125Z,100811.58
2018-08-23T02:14:19.207Z,100808.57
2018-08-23T02:16:24.409Z,100812.11
2018-08-23T02:18:29.729Z,100806.36
2018-08-23T02:20:35.009Z,100805.53
2018-08-23T02:22:39.966Z,100807.84
2018-08-23T02:24:49.483Z,100804.40
2018-08-23T02:26:54.390Z,100807.94
2018-08-23T02:28:59.467Z,100796.23
2018-08-23T02:31:04.669Z,100790.96
2018-08-23T02:33:13.805Z,100801.80
2018-08-23T02:35:19.272Z,100788.69
2018-08-23T02:37:24.391Z,100788.89
2018-08-23T02:39:29.369Z,100790.92
2018-08-23T02:41:34.465Z,100788.69
2018-08-23T02:43:39.483Z,100786.13
2018-08-23T02:45:49.649Z,100784.74
2018-08-23T02:47:54.734Z,100782.70
2018-08-23T02:49:59.861Z,100788.41
2018-08-23T02:52:05.766Z,100780.59
2018-08-23T02:54:14.126Z,100780.16
2018-08-23T02:56:21.193Z,100777.52
2018-08-23T02:58:26.656Z,100775.25
2018-08-23T03:00:36.653Z,100775.56
2018-08-23T03:02:41.844Z,100771.03
2018-08-23T03:04:46.799Z,100772.97
2018-08-23T03:06:57.885Z,100764.37
2018-08-23T03:09:03.210Z,100766.11
2018-08-23T03:11:10.162Z,100763.39
2018-08-23T03:13:15.372Z,100765.52
2018-08-23T03:15:24.731Z,100760.85
2018-08-23T03:17:37.967Z,100758.36
2018-08-23T03:20:03.906Z,100760.11
2018-08-23T03:22:08.994Z,100759.19
2018-08-23T03:24:14.085Z,100759.19
2018-08-23T03:26:18.936Z,100759.55
2018-08-23T03:28:23.827Z,100750.46
2018-08-23T03:30:28.835Z,100758.08
2018-08-23T03:32:33.959Z,100756.95
2018-08-23T03:34:39.092Z,100751.31
2018-08-23T03:36:44.266Z,100752.38
2018-08-23T03:38:49.372Z,100751.42
2018-08-23T03:40:54.549Z,100741.81
2018-08-23T03:42:59.921Z,100742.13
2018-08-23T03:45:05.205Z,100739.88
2018-08-23T03:47:10.536Z,100753.64
2018-08-23T03:49:15.738Z,100750.15
2018-08-23T03:51:21.090Z,100756.05
2018-08-23T03:53:47.474Z,100758.03
2018-08-23T03:56:08.985Z,100756.66
2018-08-23T03:58:14.092Z,100755.22
2018-08-23T04:00:23.612Z,100753.85
2018-08-23T04:02:28.580Z,100757.22
2018-08-23T04:04:33.334Z,100755.39
2018-08-23T04:06:38.188Z,100750.97
2018-08-23T04:08:43.018Z,100751.77
2018-08-23T04:10:47.822Z,100757.36
2018-08-23T04:12:52.720Z,100756.70
2018-08-23T04:15:12.083Z,100750.97
2018-08-23T04:17:17.109Z,100745.28
2018-08-23T04:19:22.315Z,100751.32
2018-08-23T04:21:28.186Z,100741.87
2018-08-23T04:23:34.282Z,100740.80
2018-08-23T04:25:39.385Z,100736.73
2018-08-23T04:27:44.519Z,100735.75
2018-08-23T04:29:49.671Z,100737.77
2018-08-23T04:31:54.897Z,100736.89
2018-08-23T04:33:59.801Z,100729.91
2018-08-23T04:36:04.817Z,100725.56
2018-08-23T04:38:09.860Z,100729.41
2018-08-23T04:40:15.019Z,100728.11
2018-08-23T04:42:19.954Z,100722.13
2018-08-23T04:44:25.124Z,100724.67
2018-08-23T04:46:33.225Z,100724.16
2018-08-23T04:48:38.416Z,100718.98
2018-08-23T04:50:43.429Z,100727.58
2018-08-23T04:52:48.309Z,100717.52
2018-08-23T04:54:53.180Z,100720.97
2018-08-23T04:56:58.313Z,100722.66
2018-08-23T04:59:03.249Z,100711.80
2018-08-23T05:01:08.213Z,100710.81
2018-08-23T05:03:13.126Z,100721.36
2018-08-23T05:05:18.024Z,100720.88
2018-08-23T05:07:24.129Z,100706.22
2018-08-23T05:09:29.038Z,100716.73
2018-08-23T05:11:33.927Z,100715.01
2018-08-23T05:13:39.036Z,100718.53
2018-08-23T05:15:45.373Z,100716.31
2018-08-23T05:17:50.921Z,100713.73
2018-08-23T05:19:55.910Z,100718.58
2018-08-23T05:22:00.935Z,100722.17
2018-08-23T05:24:12.781Z,100720.41
2018-08-23T05:26:19.278Z,100721.75
2018-08-23T05:28:24.488Z,100717.48
2018-08-23T05:30:30.031Z,100723.53
2018-08-23T05:32:49.208Z,100720.13
2018-08-23T05:35:05.223Z,100721.43
2018-08-23T05:37:21.263Z,100715.82
2018-08-23T05:42:09.042Z,100726.77
2018-08-23T05:44:19.738Z,100728.05
2018-08-23T05:46:26.261Z,100726.75
2018-08-23T05:48:32.359Z,100718.59
2018-08-23T05:50:39.676Z,100716.13
2018-08-23T05:52:52.387Z,100716.97
2018-08-23T05:54:57.978Z,100718.32
2018-08-23T05:57:03.184Z,100721.78
2018-08-23T05:59:13.965Z,100720.19
2018-08-23T06:01:19.064Z,100718.91
2018-08-23T06:03:24.184Z,100718.08
2018-08-23T06:05:29.466Z,100714.30
2018-08-23T06:07:35.328Z,100720.88
2018-08-23T06:09:43.159Z,100719.20
2018-08-23T06:11:48.125Z,100723.14
2018-08-23T06:13:53.364Z,100711.91
2018-08-23T06:15:58.530Z,100712.33
2018-08-23T06:18:03.745Z,100713.73
2018-08-23T06:20:09.458Z,100710.36
2018-08-23T06:22:13.704Z,100716.97
2018-08-23T06:24:18.676Z,100721.87
2018-08-23T06:26:54.169Z,100712.85
2018-08-23T06:28:59.105Z,100707.70
2018-08-23T06:31:05.507Z,100712.09
2018-08-23T06:33:10.830Z,100718.24
2018-08-23T06:35:15.843Z,100723.89
2018-08-23T06:37:22.496Z,100719.28
2018-08-23T06:39:27.548Z,100719.37
2018-08-23T06:41:32.942Z,100721.54
2018-08-23T06:43:38.498Z,100720.26
2018-08-23T06:45:43.654Z,100719.41
2018-08-23T06:47:56.732Z,100710.80
2018-08-23T06:50:02.315Z,100710.42
2018-08-23T06:52:14.536Z,100710.92
2018-08-23T06:54:20.931Z,100711.03
2018-08-23T06:56:26.273Z,100710.66
2018-08-23T06:58:32.409Z,100712.44
2018-08-23T07:00:37.371Z,100708.58
2018-08-23T07:02:48.474Z,100701.30
2018-08-23T07:04:54.283Z,100703.09
2018-08-23T07:06:59.362Z,100683.53
2018-08-23T07:09:07.380Z,100701.41
2018-08-23T07:11:21.241Z,100701.95
2018-08-23T07:13:28.203Z,100705.45
2018-08-23T07:15:33.754Z,100700.30
2018-08-23T07:17:40.249Z,100708.16
2018-08-23T07:19:47.040Z,100710.38
2018-08-23T07:21:56.450Z,100707.81
2018-08-23T07:24:02.273Z,100704.00
2018-08-23T07:26:08.045Z,100713.28
2018-08-23T07:28:13.611Z,100714.11
2018-08-23T07:30:21.065Z,100708.94
2018-08-23T07:32:32.652Z,100713.76
2018-08-23T07:34:39.986Z,100709.46
2018-08-23T07:36:45.509Z,100712.53
2018-08-23T07:38:50.913Z,100703.41
2018-08-23T07:40:55.876Z,100709.09
2018-08-23T07:43:01.002Z,100710.42
2018-08-23T07:45:06.814Z,100714.77
2018-08-23T07:47:13.072Z,100709.58
2018-08-23T07:49:19.481Z,100713.95
2018-08-23T07:51:25.799Z,100724.44
2018-08-23T07:53:31.063Z,100684.38
2018-08-23T07:55:36.220Z,100717.11
2018-08-23T07:57:42.083Z,100715.83
2018-08-23T07:59:47.623Z,100705.86
2018-08-23T08:01:52.871Z,100701.11
2018-08-23T08:03:58.832Z,100715.03
2018-08-23T08:06:04.004Z,100714.15
2018-08-23T08:08:12.196Z,100715.48
2018-08-23T08:10:20.429Z,100715.93
2018-08-23T08:12:39.769Z,100715.91
2018-08-23T08:14:44.783Z,100716.84
2018-08-23T08:16:49.804Z,100714.23
2018-08-23T08:18:55.028Z,100715.11
2018-08-23T08:21:02.913Z,100712.07
2018-08-23T08:23:07.989Z,100714.25
2018-08-23T08:25:19.750Z,100722.96
2018-08-23T08:27:24.996Z,100712.08
2018-08-23T08:29:35.226Z,100716.03
2018-08-23T08:31:40.209Z,100724.30
2018-08-23T08:33:45.479Z,100719.95
2018-08-23T08:35:51.662Z,100723.02
2018-08-23T08:37:56.634Z,100728.67
2018-08-23T08:40:01.866Z,100724.30
2018-08-23T08:42:06.970Z,100718.19
2018-08-23T08:44:12.213Z,100717.77
2018-08-23T08:46:17.135Z,100722.58
2018-08-23T08:48:30.337Z,100715.61
2018-08-23T08:50:39.934Z,100706.42
2018-08-23T08:52:44.878Z,100717.31
2018-08-23T08:54:50.271Z,100699.02
2018-08-23T08:56:57.553Z,100714.23
2018-08-23T08:59:02.617Z,100710.31
2018-08-23T09:01:07.663Z,100708.55
2018-08-23T09:03:12.700Z,100709.80
2018-08-23T09:05:18.070Z,100698.97
2018-08-23T09:07:29.377Z,100709.25
2018-08-23T09:09:37.120Z,100701.75
2018-08-23T09:11:42.885Z,100696.60
2018-08-23T09:13:48.338Z,100696.16
2018-08-23T09:15:54.301Z,100687.45
2018-08-23T09:17:59.456Z,100689.61
2018-08-23T09:20:09.610Z,100688.94
2018-08-23T09:22:19.438Z,100681.03
2018-08-23T09:24:28.383Z,100693.03
2018-08-23T09:26:38.885Z,100687.27
2018-08-23T09:28:43.837Z,100690.97
2018-08-23T09:30:48.971Z,100689.53
2018-08-23T09:32:54.182Z,100678.11
2018-08-23T09:37:16.039Z,100688.05
2018-08-23T09:39:21.230Z,100690.50
2018-08-23T09:41:26.911Z,100688.84
2018-08-23T09:43:33.311Z,100678.05
2018-08-23T09:45:39.228Z,100679.16
2018-08-23T09:47:44.414Z,100679.64
2018-08-23T09:49:51.693Z,100683.96
2018-08-23T09:51:56.796Z,100679.61
2018-08-23T09:54:02.049Z,100679.98
2018-08-23T09:56:07.726Z,100673.95
2018-08-23T09:58:17.902Z,100675.09
2018-08-23T10:00:30.023Z,100667.73
2018-08-23T10:02:40.310Z,100658.20
2018-08-23T10:04:50.250Z,100664.14
2018-08-23T10:07:03.649Z,100663.12
2018-08-23T10:09:25.122Z,100672.55
2018-08-23T10:11:34.933Z,100658.94
2018-08-23T10:13:50.607Z,100660.72
2018-08-23T10:16:00.467Z,100661.15
2018-08-23T10:18:10.468Z,100660.42
2018-08-23T10:20:20.264Z,100656.95
2018-08-23T10:23:31.442Z,100660.30
2018-08-23T10:25:51.227Z,100666.29
2018-08-23T10:27:56.333Z,100657.06
2018-08-23T10:30:01.553Z,100657.11
2018-08-23T10:32:06.740Z,100659.75
2018-08-23T10:34:11.918Z,100657.70
2018-08-23T10:36:17.112Z,100654.41
2018-08-23T10:38:23.716Z,100650.86
2018-08-23T10:40:29.974Z,100654.69
2018-08-23T10:42:35.002Z,100652.72
2018-08-23T10:44:40.245Z,100643.06
2018-08-23T10:46:50.041Z,100648.62
2018-08-23T10:48:55.074Z,100648.80
2018-08-23T10:51:00.207Z,100633.63
2018-08-23T10:53:05.423Z,100643.87
2018-08-23T10:55:10.717Z,100651.95
2018-08-23T10:57:18.761Z,100642.85
2018-08-23T10:59:23.884Z,100645.28
2018-08-23T11:01:28.673Z,100638.75
2018-08-23T11:03:33.984Z,100641.88
2018-08-23T11:05:39.139Z,100636.76
2018-08-23T11:07:48.924Z,100631.84
2018-08-23T11:09:58.996Z,100640.19
2018-08-23T11:12:04.406Z,100642.58
2018-08-23T11:14:41.251Z,100642.25
2018-08-23T11:18:52.237Z,100639.86
2018-08-23T11:20:57.030Z,100639.49
2018-08-23T11:23:02.287Z,100641.44
2018-08-23T11:25:07.670Z,100639.80
2018-08-23T11:27:14.938Z,100641.78
2018-08-23T11:29:22.640Z,100649.88
2018-08-23T11:31:31.293Z,100640.61
2018-08-23T11:33:36.568Z,100628.14
2018-08-23T11:35:41.748Z,100650.91
2018-08-23T11:37:46.819Z,100630.92
2018-08-23T11:39:52.169Z,100631.44
2018-08-23T11:41:57.328Z,100640.13
2018-08-23T11:44:02.648Z,100639.30
2018-08-23T11:46:12.803Z,100636.56
2018-08-23T11:48:17.834Z,100635.05
2018-08-23T11:50:22.951Z,100634.31
2018-08-23T11:52:28.056Z,100630.69
2018-08-23T11:54:33.151Z,100626.27
2018-08-23T11:56:38.351Z,100632.38
2018-08-23T11:58:43.796Z,100622.27
2018-08-23T12:00:49.198Z,100623.00
2018-08-23T12:02:54.099Z,100630.10
2018-08-23T12:04:59.093Z,100625.12
2018-08-23T12:07:04.165Z,100616.48
2018-08-23T12:09:09.594Z,100627.33
2018-08-23T12:11:14.788Z,100624.76
2018-08-23T12:13:19.893Z,100616.16
2018-08-23T12:15:28.735Z,100632.53
2018-08-23T12:17:33.862Z,100620.73
2018-08-23T12:19:38.920Z,100626.63
2018-08-23T12:21:43.771Z,100616.98
2018-08-23T12:23:48.840Z,100614.27
2018-08-23T12:25:54.683Z,100597.06
2018-08-23T12:30:09.150Z,100617.77
2018-08-23T12:32:14.476Z,100622.58
2018-08-23T12:34:38.948Z,100616.20
2018-08-23T12:36:49.503Z,100620.17
2018-08-23T12:38:59.822Z,100597.11
2018-08-23T12:41:10.427Z,100615.09
2018-08-23T12:43:16.203Z,100603.14
2018-08-23T12:45:22.507Z,100615.05
2018-08-23T12:47:27.742Z,100606.78
2018-08-23T12:49:32.910Z,100594.20
2018-08-23T12:51:38.477Z,100579.62
2018-08-23T12:53:43.652Z,100607.34
2018-08-23T12:55:48.828Z,100608.38
2018-08-23T12:57:53.726Z,100609.23
2018-08-23T12:59:58.529Z,100613.21
2018-08-23T13:02:03.595Z,100602.09
2018-08-23T13:04:08.617Z,100599.02
2018-08-23T13:06:13.601Z,100592.98
2018-08-23T13:08:18.561Z,100592.48
2018-08-23T13:10:23.453Z,100598.50
2018-08-23T13:12:28.311Z,100593.91
2018-08-23T13:14:33.306Z,100597.09
2018-08-23T13:16:38.625Z,100588.59
2018-08-23T13:18:43.523Z,100570.20
2018-08-23T13:20:48.482Z,100576.63
2018-08-23T13:22:53.516Z,100577.75
2018-08-23T13:25:03.377Z,100577.09
2018-08-23T13:27:08.319Z,100574.04
2018-08-23T13:29:13.320Z,100574.84
2018-08-23T13:31:18.583Z,100585.41
2018-08-23T13:33:24.328Z,100562.66
2018-08-23T13:35:29.365Z,100569.03
2018-08-23T13:37:35.447Z,100565.92
2018-08-23T13:39:40.499Z,100570.77
2018-08-23T13:41:45.433Z,100565.64
2018-08-23T13:43:50.313Z,100566.70
2018-08-23T13:45:55.141Z,100551.18
2018-08-23T13:47:59.988Z,100555.48
2018-08-23T13:50:05.055Z,100550.98
2018-08-23T13:52:10.060Z,100552.39
2018-08-23T13:54:15.152Z,100532.66
2018-08-23T13:56:20.670Z,100528.80
2018-08-23T13:58:26.289Z,100536.88
2018-08-23T14:00:39.580Z,100536.78
2018-08-23T14:02:45.164Z,100541.80
2018-08-23T14:04:50.533Z,100526.27
2018-08-23T14:06:56.068Z,100537.94
2018-08-23T14:09:01.483Z,100529.09
2018-08-23T14:11:06.576Z,100524.36
2018-08-23T14:13:18.162Z,100529.80
2018-08-23T14:15:34.278Z,100518.78
2018-08-23T14:17:51.543Z,100524.69
2018-08-23T14:20:04.383Z,100523.56
2018-08-23T14:22:12.051Z,100506.24
2018-08-23T14:24:17.893Z,100516.89
2018-08-23T14:26:22.958Z,100530.94
2018-08-23T14:28:28.184Z,100508.00
2018-08-23T14:30:33.334Z,100522.30
2018-08-23T14:32:38.493Z,100515.39
2018-08-23T14:34:43.676Z,100510.83
2018-08-23T14:36:49.666Z,100505.28
2018-08-23T14:38:54.821Z,100496.87
2018-08-23T14:41:00.109Z,100501.31
2018-08-23T14:43:05.614Z,100494.30
2018-08-23T14:45:11.883Z,100502.00
2018-08-23T14:47:22.296Z,100494.91
2018-08-23T14:49:33.320Z,100439.66
2018-08-23T14:51:38.919Z,100483.74
2018-08-23T14:53:44.739Z,100490.42
2018-08-23T14:55:55.639Z,100497.53
2018-08-23T14:58:01.862Z,100448.70
2018-08-23T15:00:07.228Z,100499.55
2018-08-23T15:02:12.431Z,100495.28
2018-08-23T15:04:17.452Z,100486.72
2018-08-23T15:06:23.054Z,100496.81
2018-08-23T15:08:28.543Z,100494.72
2018-08-23T15:10:35.856Z,100491.83
2018-08-23T15:12:43.116Z,100475.74
2018-08-23T15:14:49.058Z,100463.85
2018-08-23T15:16:54.099Z,100483.52
2018-08-23T15:18:59.405Z,100477.20
2018-08-23T15:21:04.647Z,100474.64
2018-08-23T15:23:09.893Z,100482.05
2018-08-23T15:25:15.118Z,100479.99
2018-08-23T15:27:20.382Z,100490.22
2018-08-23T15:29:26.247Z,100477.34
2018-08-23T15:31:31.773Z,100450.58
2018-08-23T15:33:36.728Z,100483.91
2018-08-23T15:35:41.544Z,100477.84
2018-08-23T15:37:46.544Z,100474.59
2018-08-23T15:39:51.411Z,100469.11
2018-08-23T15:41:56.183Z,100459.34
2018-08-23T15:44:01.235Z,100469.81
2018-08-23T15:46:06.234Z,100467.00
2018-08-23T15:48:11.860Z,100471.50
2018-08-23T15:50:16.916Z,100472.85
2018-08-23T15:52:26.351Z,100474.04
2018-08-23T15:54:31.221Z,100472.38
2018-08-23T15:56:38.966Z,100473.85
2018-08-23T15:58:44.382Z,100464.88
2018-08-23T16:00:50.542Z,100466.95
2018-08-23T16:02:58.206Z,100479.71
2018-08-23T16:05:06.408Z,100488.56
2018-08-23T16:07:12.579Z,100464.23
2018-08-23T16:09:43.728Z,100486.76
2018-08-23T16:11:53.247Z,100479.57
2018-08-23T16:13:58.679Z,100487.53
2018-08-23T16:16:11.924Z,100470.00
2018-08-23T16:18:30.386Z,100471.38
2018-08-23T16:20:45.955Z,100474.44
2018-08-23T16:22:54.631Z,100471.35
2018-08-23T16:25:04.640Z,100463.70
2018-08-23T16:27:10.008Z,100471.58
2018-08-23T16:29:18.787Z,100469.20
2018-08-23T16:31:24.527Z,100468.67
2018-08-23T16:33:29.359Z,100450.80
2018-08-23T16:35:34.615Z,100463.14
2018-08-23T16:37:39.827Z,100474.98
2018-08-23T16:39:44.926Z,100470.72
2018-08-23T16:41:50.337Z,100460.40
2018-08-23T16:43:55.214Z,100460.52
2018-08-23T16:46:04.959Z,100463.35
2018-08-23T16:48:10.392Z,100458.00
2018-08-23T16:50:15.790Z,100459.98
2018-08-23T16:52:23.487Z,100463.52
2018-08-23T16:54:28.598Z,100466.33
2018-08-23T16:56:33.920Z,100457.37
2018-08-23T16:58:38.892Z,100449.78
2018-08-23T17:00:44.241Z,100446.27
2018-08-23T17:02:49.664Z,100448.66
2018-08-23T17:04:54.985Z,100442.25
2018-08-23T17:07:00.203Z,100449.42
2018-08-23T17:09:07.229Z,100445.55
2018-08-23T17:11:12.507Z,100447.36
2018-08-23T17:13:22.465Z,100438.41
2018-08-23T17:15:31.594Z,100440.13
2018-08-23T17:17:37.082Z,100439.49
2018-08-23T17:19:42.141Z,100444.81
2018-08-23T17:21:46.981Z,100414.86
2018-08-23T17:23:52.085Z,100421.44
2018-08-23T17:25:57.745Z,100431.38
2018-08-23T17:28:02.939Z,100431.23
2018-08-23T17:30:08.131Z,100430.64
2018-08-23T17:32:13.321Z,100431.13
2018-08-23T17:34:18.648Z,100423.98
2018-08-23T17:36:23.885Z,100420.19
2018-08-23T17:38:30.575Z,100428.15
2018-08-23T17:40:35.688Z,100430.02
2018-08-23T17:42:43.423Z,100430.88
2018-08-23T17:44:48.565Z,100439.48
2018-08-23T17:46:53.861Z,100435.73
2018-08-23T17:48:59.246Z,100433.80
2018-08-23T17:51:04.216Z,100445.55
2018-08-23T17:53:10.504Z,100444.35
2018-08-23T17:55:15.966Z,100450.58
2018-08-23T17:57:21.535Z,100442.72
2018-08-23T17:59:28.701Z,100447.91
2018-08-23T18:01:34.512Z,100444.54
2018-08-23T18:03:39.898Z,100445.00
2018-08-23T18:05:45.898Z,100448.00
2018-08-23T18:07:50.839Z,100449.39
2018-08-23T18:09:57.323Z,100443.34
2018-08-23T18:12:03.296Z,100424.66
2018-08-23T18:14:08.640Z,100448.98
2018-08-23T18:16:20.086Z,100450.70
2018-08-23T18:18:26.175Z,100450.37
2018-08-23T18:20:32.519Z,100454.77
2018-08-23T18:22:41.567Z,100451.30
2018-08-23T18:24:46.528Z,100451.37
2018-08-23T18:26:51.650Z,100442.52
2018-08-23T18:28:56.686Z,100444.88
2018-08-23T18:31:02.469Z,100451.00
2018-08-23T18:33:07.723Z,100454.89
2018-08-23T18:35:13.060Z,100456.61
2018-08-23T18:37:18.170Z,100454.48
2018-08-23T18:39:23.136Z,100448.01
2018-08-23T18:41:28.349Z,100467.55
2018-08-23T18:43:35.640Z,100463.69
2018-08-23T18:45:40.829Z,100466.20
2018-08-23T18:47:46.074Z,100464.55
2018-08-23T18:49:52.033Z,100467.09
2018-08-23T18:51:57.162Z,100452.41
2018-08-23T18:54:02.579Z,100463.24
2018-08-23T18:56:08.401Z,100465.89
2018-08-23T18:58:19.079Z,100467.13
2018-08-23T19:00:24.753Z,100463.12
2018-08-23T19:02:30.549Z,100464.92
2018-08-23T19:04:41.564Z,100471.05
2018-08-23T19:06:52.926Z,100479.71
2018-08-23T19:08:58.686Z,100474.48
2018-08-23T19:11:04.140Z,100470.22
2018-08-23T19:13:15.948Z,100470.69
2018-08-23T19:15:27.225Z,100465.91
2018-08-23T19:17:39.369Z,100468.55
2018-08-23T19:19:45.240Z,100460.27
2018-08-23T19:21:50.443Z,100462.89
2018-08-23T19:23:55.761Z,100461.13
2018-08-23T19:26:00.932Z,100456.80
2018-08-23T19:28:06.961Z,100451.14
2018-08-23T19:30:12.332Z,100456.30
2018-08-23T19:32:22.523Z,100455.00
2018-08-23T19:34:28.696Z,100451.87
2018-08-23T19:36:34.442Z,100449.75
2018-08-23T19:38:40.019Z,100454.09
2018-08-23T19:40:45.206Z,100444.16
2018-08-23T19:42:50.849Z,100443.73
2018-08-23T19:44:56.963Z,100448.92
2018-08-23T19:47:08.286Z,100443.69
2018-08-23T19:49:19.219Z,100443.73
2018-08-23T19:51:24.650Z,100438.89
2018-08-23T19:54:07.448Z,100440.65
2018-08-23T19:56:13.099Z,100434.18
2018-08-23T19:58:18.996Z,100436.27
2018-08-23T20:00:27.395Z,100432.82
2018-08-23T20:02:32.457Z,100436.78
2018-08-23T20:04:37.703Z,100437.66
2018-08-23T20:06:43.481Z,100435.47
2018-08-23T20:08:48.453Z,100429.43
2018-08-23T20:11:00.250Z,100437.28
2018-08-23T20:13:05.936Z,100435.95
2018-08-23T20:15:13.245Z,100425.55
2018-08-23T20:17:21.915Z,100435.10
2018-08-23T20:22:12.238Z,100436.42
2018-08-23T20:24:18.019Z,100435.50
2018-08-23T20:26:27.837Z,100432.91
2018-08-23T20:28:33.907Z,100441.19
2018-08-23T20:30:49.714Z,100436.84
2018-08-23T20:36:03.880Z,100443.80
2018-08-23T20:40:40.649Z,100435.98
2018-08-23T20:42:49.101Z,100439.46
2018-08-23T20:44:58.723Z,100438.16
2018-08-23T20:47:05.289Z,100435.48
2018-08-23T20:49:13.900Z,100429.40
2018-08-23T20:51:20.595Z,100436.34
2018-08-23T20:53:27.431Z,100433.33
2018-08-23T20:55:52.999Z,100426.39
2018-08-23T20:58:00.325Z,100428.59
2018-08-23T21:00:07.671Z,100430.33
2018-08-23T21:02:34.967Z,100425.95
2018-08-23T21:04:46.578Z,100423.36
2018-08-23T21:06:54.218Z,100427.30
2018-08-23T21:09:01.073Z,100432.08
2018-08-23T21:11:10.462Z,100428.16
2018-08-23T21:13:16.441Z,100428.55
2018-08-23T21:15:39.149Z,100427.27
2018-08-23T21:17:59.456Z,100436.85
2018-08-23T21:20:30.874Z,100440.75
2018-08-23T21:22:44.202Z,100442.50
2018-08-23T21:24:49.756Z,100437.70
2018-08-23T21:27:00.275Z,100435.06
2018-08-23T21:31:39.063Z,100436.36
2018-08-23T21:33:56.870Z,100434.25
2018-08-23T21:36:10.365Z,100440.77
2018-08-23T21:38:27.422Z,100431.20
2018-08-23T21:40:49.659Z,100434.25
2018-08-23T21:45:33.875Z,100428.55
2018-08-23T21:47:46.924Z,100430.31
2018-08-23T21:50:08.084Z,100421.22
2018-08-23T21:52:20.740Z,100428.16
2018-08-23T21:54:32.098Z,100427.67
2018-08-23T21:56:50.174Z,100431.59
2018-08-23T21:59:20.811Z,100432.45
2018-08-23T22:01:39.953Z,100423.77
2018-08-23T22:03:58.622Z,100431.16
2018-08-23T22:06:24.071Z,100429.44
2018-08-23T22:08:33.350Z,100430.28
2018-08-23T22:10:47.749Z,100429.04
2018-08-23T22:13:10.316Z,100423.34
2018-08-23T22:15:36.866Z,100424.20
2018-08-23T22:17:42.047Z,100420.73
2018-08-23T22:19:47.211Z,100413.34
2018-08-23T22:21:52.464Z,100424.20
2018-08-23T22:23:57.831Z,100422.95
2018-08-23T22:26:03.521Z,100417.72
2018-08-23T22:28:09.469Z,100421.66
2018-08-23T22:30:15.247Z,100418.59
2018-08-23T22:32:20.286Z,100420.30
2018-08-23T22:34:25.523Z,100426.44
2018-08-23T22:36:30.675Z,100428.14
2018-08-23T22:38:35.954Z,100420.78
2018-08-23T22:40:41.259Z,100421.66
2018-08-23T22:42:46.704Z,100418.61
2018-08-23T22:44:52.054Z,100410.32
2018-08-23T22:46:57.519Z,100414.22
2018-08-23T22:49:03.150Z,100416.35
2018-08-23T22:51:08.091Z,100400.34
2018-08-23T22:53:13.338Z,100390.75
2018-08-23T22:55:18.757Z,100413.80
2018-08-23T22:57:24.087Z,100408.19
2018-08-23T22:59:29.181Z,100401.65
2018-08-23T23:01:34.626Z,100398.14
2018-08-23T23:03:44.754Z,100404.67
2018-08-23T23:05:49.972Z,100400.71
2018-08-23T23:07:56.063Z,100406.34
2018-08-23T23:10:01.554Z,100400.77
2018-08-23T23:12:08.189Z,100404.22
2018-08-23T23:14:14.177Z,100402.50
2018-08-23T23:16:19.972Z,100401.62
2018-08-23T23:18:25.634Z,100407.31
2018-08-23T23:20:30.850Z,100405.58
2018-08-23T23:22:36.877Z,100400.34
2018-08-23T23:24:47.309Z,100406.01
2018-08-23T23:26:52.480Z,100388.16
2018-08-23T23:28:57.747Z,100394.70
2018-08-23T23:31:03.241Z,100390.80
2018-08-23T23:33:08.362Z,100395.56
2018-08-23T23:35:13.707Z,100389.91
2018-08-23T23:37:18.923Z,100393.36
2018-08-23T23:39:25.187Z,100400.77
2018-08-23T23:41:30.301Z,100395.97
2018-08-23T23:43:35.509Z,100393.80
2018-08-23T23:45:40.724Z,100396.41
2018-08-23T23:47:46.097Z,100402.48
2018-08-23T23:49:53.332Z,100394.23
2018-08-23T23:51:58.803Z,100412.91
2018-08-23T23:54:04.071Z,100416.31
2018-08-23T23:56:09.260Z,100413.19
2018-08-23T23:58:15.643Z,100410.85
